createdAt,value
2019-04-10T00:00:35.070Z,5.50
2019-04-10T00:01:34.659Z,5.48
2019-04-10T00:02:34.648Z,5.53
2019-04-10T00:03:37.953Z,5.47
2019-04-10T00:04:35.621Z,5.56
2019-04-10T00:05:34.614Z,5.48
2019-04-10T00:06:34.620Z,5.47
2019-04-10T00:07:34.593Z,5.44
2019-04-10T00:08:34.592Z,5.54
2019-04-10T00:09:34.964Z,5.47
2019-04-10T00:10:34.564Z,5.50
2019-04-10T00:11:34.639Z,5.32
2019-04-10T00:12:34.547Z,5.41
2019-04-10T00:13:34.530Z,5.26
2019-04-10T00:14:34.592Z,5.28
2019-04-10T00:15:34.747Z,5.32
2019-04-10T00:16:34.493Z,5.20
2019-04-10T00:17:35.388Z,5.10
2019-04-10T00:18:34.474Z,5.11
2019-04-10T00:19:35.719Z,5.11
2019-04-10T00:20:34.459Z,4.97
2019-04-10T00:21:35.478Z,4.92
2019-04-10T00:22:34.456Z,5.00
2019-04-10T00:23:35.275Z,5.04
2019-04-10T00:24:34.432Z,5.10
2019-04-10T00:25:34.979Z,5.07
2019-04-10T00:26:34.391Z,5.10
2019-04-10T00:27:34.670Z,5.08
2019-04-10T00:28:34.364Z,5.07
2019-04-10T00:29:34.392Z,5.07
2019-04-10T00:30:35.215Z,5.08
2019-04-10T00:31:34.336Z,5.05
2019-04-10T00:32:34.329Z,4.96
2019-04-10T00:33:34.673Z,5.04
2019-04-10T00:34:34.307Z,5.04
2019-04-10T00:35:35.188Z,4.94
2019-04-10T00:36:35.197Z,4.94
2019-04-10T00:37:35.197Z,4.92
2019-04-10T00:38:34.258Z,4.90
2019-04-10T00:39:34.883Z,4.80
2019-04-10T00:40:35.085Z,4.80
2019-04-10T00:41:34.426Z,4.70
2019-04-10T00:42:34.858Z,4.75
2019-04-10T00:43:35.014Z,4.75
2019-04-10T00:44:34.198Z,4.74
2019-04-10T00:45:34.211Z,4.74
2019-04-10T00:46:34.662Z,4.67
2019-04-10T00:47:35.109Z,4.74
2019-04-10T00:48:34.253Z,4.70
2019-04-10T00:49:34.141Z,4.60
2019-04-10T00:50:34.775Z,4.63
2019-04-10T00:51:35.170Z,4.67
2019-04-10T00:52:34.479Z,4.60
2019-04-10T00:53:34.920Z,4.67
2019-04-10T00:54:34.904Z,4.71
2019-04-10T00:55:34.078Z,4.74
2019-04-10T00:56:34.794Z,4.71
2019-04-10T00:57:34.071Z,4.62
2019-04-10T00:58:34.044Z,4.62
2019-04-10T00:59:34.472Z,4.60
2019-04-10T01:00:36.447Z,4.60
2019-04-10T01:01:34.091Z,4.62
2019-04-10T01:02:34.525Z,4.63
2019-04-10T01:03:33.985Z,4.70
2019-04-10T01:04:34.177Z,4.63
2019-04-10T01:05:33.972Z,4.59
2019-04-10T01:06:33.957Z,4.59
2019-04-10T01:07:39.748Z,4.60
2019-04-10T01:08:34.947Z,4.63
2019-04-10T01:09:33.927Z,4.59
2019-04-10T01:10:34.585Z,4.53
2019-04-10T01:11:34.893Z,4.50
2019-04-10T01:12:34.231Z,4.52
2019-04-10T01:13:34.653Z,4.45
2019-04-10T01:14:33.990Z,4.42
2019-04-10T01:15:34.437Z,4.49
2019-04-10T01:16:33.851Z,4.53
2019-04-10T01:17:34.686Z,4.40
2019-04-10T01:18:33.827Z,4.49
2019-04-10T01:19:34.362Z,4.40
2019-04-10T01:20:33.807Z,4.32
2019-04-10T01:21:34.627Z,4.41
2019-04-10T01:22:33.789Z,4.31
2019-04-10T01:23:33.795Z,4.31
2019-04-10T01:24:33.780Z,4.31
2019-04-10T01:25:34.617Z,4.24
2019-04-10T01:26:33.739Z,4.35
2019-04-10T01:27:34.115Z,4.23
2019-04-10T01:28:33.722Z,4.31
2019-04-10T01:29:33.707Z,4.23
2019-04-10T01:30:34.726Z,4.19
2019-04-10T01:31:33.684Z,4.22
2019-04-10T01:32:34.212Z,4.22
2019-04-10T01:33:33.665Z,4.17
2019-04-10T01:34:33.768Z,4.34
2019-04-10T01:35:34.234Z,4.32
2019-04-10T01:36:33.652Z,4.26
2019-04-10T01:37:46.658Z,4.22
2019-04-10T01:38:35.577Z,4.20
2019-04-10T01:39:34.649Z,4.14
2019-04-10T01:40:33.596Z,4.17
2019-04-10T01:41:34.239Z,4.16
2019-04-10T01:42:33.595Z,4.13
2019-04-10T01:43:33.561Z,4.16
2019-04-10T01:44:33.545Z,4.05
2019-04-10T01:45:33.534Z,4.13
2019-04-10T01:46:35.746Z,4.13
2019-04-10T01:47:33.519Z,4.14
2019-04-10T01:48:34.523Z,4.19
2019-04-10T01:49:33.636Z,4.12
2019-04-10T01:50:33.482Z,4.14
2019-04-10T01:51:33.489Z,4.05
2019-04-10T01:52:33.467Z,3.96
2019-04-10T01:53:33.581Z,3.95
2019-04-10T01:54:33.472Z,3.95
2019-04-10T01:55:34.255Z,3.95
2019-04-10T01:56:35.147Z,3.84
2019-04-10T01:57:34.562Z,3.91
2019-04-10T01:58:33.401Z,3.87
2019-04-10T01:59:34.059Z,3.81
2019-04-10T02:00:33.398Z,3.86
2019-04-10T02:01:34.582Z,3.84
2019-04-10T02:02:33.624Z,3.81
2019-04-10T02:03:34.071Z,3.80
2019-04-10T02:04:33.339Z,3.78
2019-04-10T02:05:33.569Z,3.83
2019-04-10T02:06:33.670Z,3.83
2019-04-10T02:07:34.080Z,3.86
2019-04-10T02:08:34.101Z,3.88
2019-04-10T02:09:33.283Z,3.95
2019-04-10T02:10:34.246Z,3.84
2019-04-10T02:11:34.197Z,3.86
2019-04-10T02:12:33.255Z,3.88
2019-04-10T02:13:33.851Z,3.88
2019-04-10T02:14:33.232Z,3.83
2019-04-10T02:15:34.225Z,3.81
2019-04-10T02:16:33.206Z,3.83
2019-04-10T02:17:33.219Z,3.78
2019-04-10T02:18:33.221Z,3.74
2019-04-10T02:19:33.181Z,3.80
2019-04-10T02:20:33.180Z,3.77
2019-04-10T02:21:34.007Z,3.77
2019-04-10T02:22:33.168Z,3.84
2019-04-10T02:23:33.136Z,3.78
2019-04-10T02:24:33.393Z,3.81
2019-04-10T02:25:33.117Z,3.83
2019-04-10T02:26:33.853Z,3.73
2019-04-10T02:27:34.249Z,3.78
2019-04-10T02:28:33.393Z,3.81
2019-04-10T02:29:33.564Z,3.88
2019-04-10T02:30:34.664Z,3.80
2019-04-10T02:31:34.302Z,3.74
2019-04-10T02:32:34.392Z,3.74
2019-04-10T02:33:33.600Z,3.74
2019-04-10T02:34:33.020Z,3.80
2019-04-10T02:35:34.059Z,3.77
2019-04-10T02:36:34.462Z,3.83
2019-04-10T02:37:33.263Z,3.80
2019-04-10T02:38:49.167Z,3.80
2019-04-10T02:39:40.148Z,3.78
2019-04-10T02:40:33.956Z,3.83
2019-04-10T02:41:34.474Z,3.74
2019-04-10T02:42:34.345Z,3.70
2019-04-10T02:43:33.663Z,3.70
2019-04-10T02:44:33.165Z,3.69
2019-04-10T02:45:34.232Z,3.66
2019-04-10T02:46:33.207Z,3.66
2019-04-10T02:47:32.886Z,3.55
2019-04-10T02:48:33.803Z,3.53
2019-04-10T02:49:32.861Z,3.50
2019-04-10T02:50:33.298Z,3.59
2019-04-10T02:51:32.842Z,3.51
2019-04-10T02:52:33.071Z,3.48
2019-04-10T02:53:32.818Z,3.58
2019-04-10T02:54:33.575Z,3.58
2019-04-10T02:55:33.417Z,3.51
2019-04-10T02:56:32.792Z,3.58
2019-04-10T02:57:34.802Z,3.62
2019-04-10T02:58:34.324Z,3.53
2019-04-10T02:59:33.532Z,3.50
2019-04-10T03:00:33.809Z,3.50
2019-04-10T03:01:33.503Z,3.48
2019-04-10T03:02:33.531Z,3.36
2019-04-10T03:03:34.165Z,3.32
2019-04-10T03:04:33.105Z,3.32
2019-04-10T03:05:34.452Z,3.40
2019-04-10T03:06:33.581Z,3.45
2019-04-10T03:07:33.795Z,3.40
2019-04-10T03:08:46.799Z,3.22
2019-04-10T03:09:49.494Z,3.26
2019-04-10T03:10:40.770Z,3.13
2019-04-10T03:11:35.176Z,3.08
2019-04-10T03:12:33.996Z,3.23
2019-04-10T03:13:33.740Z,3.10
2019-04-10T03:14:32.802Z,3.08
2019-04-10T03:15:33.838Z,3.01
2019-04-10T03:16:32.577Z,2.95
2019-04-10T03:17:33.272Z,3.01
2019-04-10T03:18:32.733Z,3.01
2019-04-10T03:19:32.547Z,3.03
2019-04-10T03:20:32.531Z,2.90
2019-04-10T03:21:33.308Z,2.97
2019-04-10T03:22:32.591Z,2.97
2019-04-10T03:23:33.444Z,2.90
2019-04-10T03:24:32.484Z,2.86
2019-04-10T03:25:33.023Z,2.86
2019-04-10T03:26:32.467Z,2.77
2019-04-10T03:27:32.453Z,2.74
2019-04-10T03:28:33.449Z,2.69
2019-04-10T03:29:32.453Z,2.67
2019-04-10T03:30:34.236Z,2.72
2019-04-10T03:31:34.234Z,2.79
2019-04-10T03:32:36.424Z,2.77
2019-04-10T03:33:36.053Z,2.92
2019-04-10T03:34:37.789Z,2.80
2019-04-10T03:35:34.538Z,2.85
2019-04-10T03:36:32.363Z,2.74
2019-04-10T03:37:32.351Z,2.69
2019-04-10T03:38:32.336Z,2.68
2019-04-10T03:39:34.799Z,2.67
2019-04-10T03:40:32.324Z,2.69
2019-04-10T03:41:33.177Z,2.71
2019-04-10T03:42:32.849Z,2.61
2019-04-10T03:43:32.288Z,2.54
2019-04-10T03:44:32.574Z,2.60
2019-04-10T03:45:32.755Z,2.54
2019-04-10T03:46:33.203Z,2.53
2019-04-10T03:47:33.411Z,2.54
2019-04-10T03:48:33.356Z,2.39
2019-04-10T03:49:32.230Z,2.39
2019-04-10T03:50:32.217Z,2.47
2019-04-10T03:51:32.465Z,2.36
2019-04-10T03:52:32.186Z,2.50
2019-04-10T03:53:32.194Z,2.31
2019-04-10T03:54:32.265Z,2.42
2019-04-10T03:55:32.717Z,2.39
2019-04-10T03:56:32.142Z,2.35
2019-04-10T03:57:32.135Z,2.36
2019-04-10T03:58:32.124Z,2.15
2019-04-10T03:59:32.642Z,2.24
2019-04-10T04:00:32.175Z,2.22
2019-04-10T04:01:33.158Z,2.26
2019-04-10T04:02:32.084Z,2.24
2019-04-10T04:03:32.952Z,2.22
2019-04-10T04:04:32.058Z,2.33
2019-04-10T04:05:32.833Z,2.47
2019-04-10T04:06:32.064Z,2.39
2019-04-10T04:07:32.651Z,2.38
2019-04-10T04:08:32.072Z,2.32
2019-04-10T04:09:32.009Z,2.17
2019-04-10T04:10:32.865Z,2.25
2019-04-10T04:11:31.983Z,2.24
2019-04-10T04:12:32.837Z,2.22
2019-04-10T04:13:31.969Z,2.17
2019-04-10T04:14:32.604Z,2.20
2019-04-10T04:15:31.947Z,2.13
2019-04-10T04:16:31.930Z,2.20
2019-04-10T04:17:32.529Z,2.11
2019-04-10T04:18:31.913Z,2.08
2019-04-10T04:19:32.441Z,2.04
2019-04-10T04:20:31.918Z,2.04
2019-04-10T04:21:32.080Z,1.92
2019-04-10T04:22:32.672Z,1.91
2019-04-10T04:23:31.959Z,1.89
2019-04-10T04:24:31.845Z,1.92
2019-04-10T04:25:32.480Z,1.78
2019-04-10T04:26:31.830Z,1.89
2019-04-10T04:27:31.819Z,1.88
2019-04-10T04:28:32.050Z,1.81
2019-04-10T04:29:32.490Z,1.80
2019-04-10T04:30:32.097Z,1.89
2019-04-10T04:31:31.792Z,1.74
2019-04-10T04:32:31.766Z,1.71
2019-04-10T04:33:31.986Z,1.68
2019-04-10T04:34:31.762Z,1.73
2019-04-10T04:35:31.736Z,1.71
2019-04-10T04:36:31.734Z,1.73
2019-04-10T04:37:31.709Z,1.67
2019-04-10T04:38:32.302Z,1.74
2019-04-10T04:39:32.899Z,1.77
2019-04-10T04:40:31.685Z,1.68
2019-04-10T04:41:31.694Z,1.78
2019-04-10T04:42:31.913Z,1.88
2019-04-10T04:43:32.693Z,1.85
2019-04-10T04:44:31.642Z,1.80
2019-04-10T04:45:31.637Z,1.91
2019-04-10T04:46:32.414Z,1.74
2019-04-10T04:47:31.627Z,1.84
2019-04-10T04:48:31.857Z,1.71
2019-04-10T04:49:31.582Z,1.68
2019-04-10T04:50:31.571Z,1.58
2019-04-10T04:51:31.585Z,1.59
2019-04-10T04:52:32.685Z,1.48
2019-04-10T04:53:32.238Z,1.44
2019-04-10T04:54:31.533Z,1.45
2019-04-10T04:55:31.522Z,1.35
2019-04-10T04:56:31.764Z,1.48
2019-04-10T04:57:34.185Z,1.50
2019-04-10T04:58:31.506Z,1.40
2019-04-10T04:59:32.446Z,1.44
2019-04-10T05:00:32.005Z,1.50
2019-04-10T05:01:31.820Z,1.59
2019-04-10T05:02:32.342Z,1.59
2019-04-10T05:03:31.431Z,1.53
2019-04-10T05:04:32.407Z,1.42
2019-04-10T05:05:31.427Z,1.41
2019-04-10T05:06:31.421Z,1.35
2019-04-10T05:07:31.395Z,1.53
2019-04-10T05:08:32.303Z,1.59
2019-04-10T05:09:36.905Z,1.50
2019-04-10T05:10:33.490Z,1.44
2019-04-10T05:11:31.364Z,1.38
2019-04-10T05:12:31.840Z,1.40
2019-04-10T05:13:31.757Z,1.45
2019-04-10T05:14:31.515Z,1.40
2019-04-10T05:15:31.303Z,1.45
2019-04-10T05:16:31.300Z,1.49
2019-04-10T05:17:31.287Z,1.44
2019-04-10T05:18:31.731Z,1.53
2019-04-10T05:19:31.268Z,1.52
2019-04-10T05:20:42.216Z,1.49
2019-04-10T05:21:32.849Z,1.53
2019-04-10T05:22:31.807Z,1.45
2019-04-10T05:23:31.234Z,1.42
2019-04-10T05:24:32.028Z,1.41
2019-04-10T05:25:31.614Z,1.24
2019-04-10T05:26:32.262Z,1.40
2019-04-10T05:27:31.228Z,1.42
2019-04-10T05:28:31.164Z,1.42
2019-04-10T05:29:31.383Z,1.58
2019-04-10T05:30:31.425Z,1.55
2019-04-10T05:31:32.169Z,1.50
2019-04-10T05:32:31.145Z,1.60
2019-04-10T05:33:31.152Z,1.60
2019-04-10T05:34:31.104Z,1.63
2019-04-10T05:35:31.983Z,1.62
2019-04-10T05:36:31.398Z,1.68
2019-04-10T05:37:31.631Z,1.62
2019-04-10T05:38:31.069Z,1.63
2019-04-10T05:39:42.292Z,1.66
2019-04-10T05:40:33.054Z,1.71
2019-04-10T05:41:31.438Z,1.71
2019-04-10T05:42:31.080Z,1.85
2019-04-10T05:43:31.009Z,1.92
2019-04-10T05:44:31.882Z,1.97
2019-04-10T05:45:31.844Z,2.13
2019-04-10T05:46:30.973Z,2.04
2019-04-10T05:47:30.992Z,2.15
2019-04-10T05:48:31.525Z,2.14
2019-04-10T05:49:31.130Z,2.08
2019-04-10T05:50:32.034Z,2.11
2019-04-10T05:51:30.966Z,2.10
2019-04-10T05:52:30.995Z,2.14
2019-04-10T05:53:30.898Z,2.06
2019-04-10T05:54:31.186Z,2.20
2019-04-10T05:55:31.017Z,2.11
2019-04-10T05:56:31.083Z,2.20
2019-04-10T05:57:30.894Z,2.18
2019-04-10T05:58:31.485Z,2.22
2019-04-10T05:59:30.841Z,2.33
2019-04-10T06:00:30.827Z,2.39
2019-04-10T06:01:35.827Z,2.38
2019-04-10T06:02:32.139Z,2.38
2019-04-10T06:03:30.797Z,2.53
2019-04-10T06:04:31.575Z,2.51
2019-04-10T06:05:31.978Z,2.54
2019-04-10T06:06:30.762Z,2.54
2019-04-10T06:07:30.758Z,2.65
2019-04-10T06:08:31.146Z,2.67
2019-04-10T06:09:31.140Z,2.65
2019-04-10T06:10:30.735Z,2.61
2019-04-10T06:11:31.039Z,2.61
2019-04-10T06:12:30.700Z,2.67
2019-04-10T06:13:30.687Z,2.57
2019-04-10T06:14:30.680Z,2.71
2019-04-10T06:15:30.841Z,2.77
2019-04-10T06:16:30.658Z,2.80
2019-04-10T06:17:30.678Z,2.93
2019-04-10T06:18:31.319Z,2.83
2019-04-10T06:19:30.640Z,2.86
2019-04-10T06:20:31.381Z,3.00
2019-04-10T06:21:31.403Z,2.98
2019-04-10T06:22:30.597Z,3.01
2019-04-10T06:23:31.490Z,2.97
2019-04-10T06:24:30.572Z,2.98
2019-04-10T06:25:31.724Z,2.89
2019-04-10T06:26:32.334Z,2.98
2019-04-10T06:27:30.582Z,3.07
2019-04-10T06:28:31.054Z,3.03
2019-04-10T06:29:30.850Z,3.10
2019-04-10T06:30:30.522Z,3.05
2019-04-10T06:31:30.545Z,3.08
2019-04-10T06:32:31.610Z,3.04
2019-04-10T06:33:30.475Z,3.21
2019-04-10T06:34:30.477Z,3.16
2019-04-10T06:35:30.457Z,3.25
2019-04-10T06:36:30.444Z,3.25
2019-04-10T06:37:30.459Z,3.25
2019-04-10T06:38:30.762Z,3.28
2019-04-10T06:39:31.053Z,3.34
2019-04-10T06:40:30.688Z,3.37
2019-04-10T06:41:30.562Z,3.34
2019-04-10T06:42:32.684Z,3.34
2019-04-10T06:43:31.402Z,3.44
2019-04-10T06:44:30.369Z,3.50
2019-04-10T06:45:31.485Z,3.47
2019-04-10T06:46:30.762Z,3.55
2019-04-10T06:47:30.639Z,3.63
2019-04-10T06:48:30.352Z,3.69
2019-04-10T06:49:31.094Z,3.68
2019-04-10T06:50:31.484Z,3.77
2019-04-10T06:51:31.277Z,3.78
2019-04-10T06:52:30.427Z,3.87
2019-04-10T06:53:31.079Z,3.81
2019-04-10T06:54:30.993Z,3.92
2019-04-10T06:55:30.345Z,3.81
2019-04-10T06:56:31.230Z,3.92
2019-04-10T06:57:30.558Z,3.88
2019-04-10T06:58:30.222Z,4.01
2019-04-10T06:59:30.510Z,3.96
2019-04-10T07:00:30.690Z,4.08
2019-04-10T07:01:40.534Z,4.13
2019-04-10T07:02:33.130Z,4.08
2019-04-10T07:03:46.487Z,4.10
2019-04-10T07:04:43.119Z,4.06
2019-04-10T07:05:39.794Z,4.20
2019-04-10T07:06:47.116Z,4.28
2019-04-10T07:07:46.540Z,4.26
2019-04-10T07:08:31.986Z,4.31
2019-04-10T07:09:30.209Z,4.24
2019-04-10T07:10:44.767Z,4.34
2019-04-10T07:11:32.600Z,4.34
2019-04-10T07:12:33.515Z,4.35
2019-04-10T07:13:30.224Z,4.37
2019-04-10T07:14:30.043Z,4.32
2019-04-10T07:15:30.037Z,4.44
2019-04-10T07:16:32.654Z,4.38
2019-04-10T07:17:30.016Z,4.45
2019-04-10T07:18:30.012Z,4.48
2019-04-10T07:19:30.300Z,4.59
2019-04-10T07:20:29.978Z,4.62
2019-04-10T07:21:30.778Z,4.58
2019-04-10T07:22:31.059Z,4.58
2019-04-10T07:23:31.916Z,4.58
2019-04-10T07:24:34.477Z,4.73
2019-04-10T07:25:31.934Z,4.71
2019-04-10T07:26:37.774Z,4.77
2019-04-10T07:27:34.674Z,4.75
2019-04-10T07:28:30.886Z,4.86
2019-04-10T07:29:30.860Z,4.87
2019-04-10T07:30:29.971Z,4.87
2019-04-10T07:31:30.328Z,4.94
2019-04-10T07:32:29.992Z,5.02
2019-04-10T07:33:30.792Z,5.05
2019-04-10T07:34:30.050Z,5.05
2019-04-10T07:35:33.743Z,5.12
2019-04-10T07:36:30.804Z,5.12
2019-04-10T07:37:29.817Z,5.08
2019-04-10T07:38:30.807Z,5.20
2019-04-10T07:39:33.225Z,5.25
2019-04-10T07:40:33.074Z,5.38
2019-04-10T07:41:31.509Z,5.30
2019-04-10T07:42:35.255Z,5.41
2019-04-10T07:43:30.760Z,5.35
2019-04-10T07:44:29.725Z,5.47
2019-04-10T07:45:29.730Z,5.43
2019-04-10T07:46:31.122Z,5.54
2019-04-10T07:47:29.690Z,5.62
2019-04-10T07:48:29.675Z,5.56
2019-04-10T07:49:31.242Z,5.61
2019-04-10T07:50:30.277Z,5.68
2019-04-10T07:51:29.887Z,5.69
2019-04-10T07:52:29.671Z,5.79
2019-04-10T07:53:29.629Z,5.82
2019-04-10T07:54:30.802Z,5.84
2019-04-10T07:55:30.585Z,5.82
2019-04-10T07:56:29.653Z,5.93
2019-04-10T07:57:30.706Z,5.90
2019-04-10T07:58:29.591Z,6.07
2019-04-10T07:59:29.565Z,5.98
2019-04-10T08:00:29.545Z,6.08
2019-04-10T08:01:29.551Z,6.12
2019-04-10T08:02:29.704Z,6.07
2019-04-10T08:03:29.511Z,6.17
2019-04-10T08:04:29.524Z,6.27
2019-04-10T08:05:29.668Z,6.24
2019-04-10T08:06:29.487Z,6.26
2019-04-10T08:07:34.172Z,6.30
2019-04-10T08:08:30.466Z,6.42
2019-04-10T08:09:29.447Z,6.51
2019-04-10T08:10:30.583Z,6.51
2019-04-10T08:11:29.671Z,6.62
2019-04-10T08:12:39.473Z,6.66
2019-04-10T08:13:30.906Z,6.72
2019-04-10T08:14:29.529Z,6.70
2019-04-10T08:15:29.525Z,6.85
2019-04-10T08:16:29.392Z,6.87
2019-04-10T08:17:30.380Z,6.88
2019-04-10T08:18:29.632Z,6.88
2019-04-10T08:19:29.520Z,6.97
2019-04-10T08:20:30.569Z,6.99
2019-04-10T08:21:29.518Z,7.06
2019-04-10T08:22:29.316Z,7.10
2019-04-10T08:23:30.195Z,7.15
2019-04-10T08:24:29.324Z,7.29
2019-04-10T08:25:29.284Z,7.21
2019-04-10T08:26:30.342Z,7.33
2019-04-10T08:27:29.915Z,7.31
2019-04-10T08:28:30.636Z,7.36
2019-04-10T08:29:30.252Z,7.43
2019-04-10T08:30:30.027Z,7.40
2019-04-10T08:31:29.217Z,7.54
2019-04-10T08:32:30.049Z,7.70
2019-04-10T08:33:30.188Z,7.69
2019-04-10T08:34:29.178Z,7.93
2019-04-10T08:35:29.452Z,7.98
2019-04-10T08:36:29.690Z,8.06
2019-04-10T08:37:29.408Z,8.23
2019-04-10T08:38:30.041Z,8.23
2019-04-10T08:39:38.752Z,8.23
2019-04-10T08:40:30.125Z,8.20
2019-04-10T08:41:29.708Z,8.19
2019-04-10T08:42:29.097Z,8.24
2019-04-10T08:43:29.591Z,8.38
2019-04-10T08:44:29.850Z,8.41
2019-04-10T08:45:40.539Z,8.44
2019-04-10T08:46:30.259Z,8.45
2019-04-10T08:47:29.110Z,8.44
2019-04-10T08:48:30.446Z,8.53
2019-04-10T08:49:29.023Z,8.58
2019-04-10T08:50:30.119Z,8.73
2019-04-10T08:51:29.015Z,8.88
2019-04-10T08:52:28.985Z,9.03
2019-04-10T08:53:28.994Z,9.00
2019-04-10T08:54:29.019Z,9.04
2019-04-10T08:55:28.956Z,9.13
2019-04-10T08:56:30.120Z,9.19
2019-04-10T08:57:29.770Z,9.29
2019-04-10T08:58:28.929Z,9.26
2019-04-10T08:59:29.990Z,9.16
2019-04-10T09:00:29.019Z,9.14
2019-04-10T09:01:29.301Z,9.25
2019-04-10T09:02:28.898Z,9.37
2019-04-10T09:03:28.868Z,9.47
2019-04-10T09:04:28.877Z,9.50
2019-04-10T09:05:29.878Z,9.58
2019-04-10T09:06:28.832Z,9.82
2019-04-10T09:07:28.822Z,10.02
2019-04-10T09:08:28.895Z,10.02
2019-04-10T09:09:29.821Z,10.16
2019-04-10T09:10:28.795Z,10.23
2019-04-10T09:11:30.147Z,10.40
2019-04-10T09:12:29.610Z,10.51
2019-04-10T09:13:28.759Z,10.48
2019-04-10T09:14:29.630Z,10.74
2019-04-10T09:15:29.830Z,10.75
2019-04-10T09:16:28.864Z,10.76
2019-04-10T09:17:28.716Z,10.74
2019-04-10T09:18:29.517Z,10.69
2019-04-10T09:19:29.877Z,10.71
2019-04-10T09:20:28.885Z,10.42
2019-04-10T09:21:28.676Z,10.49
2019-04-10T09:22:30.118Z,10.46
2019-04-10T09:23:37.913Z,10.49
2019-04-10T09:24:30.081Z,10.54
2019-04-10T09:25:28.640Z,10.49
2019-04-10T09:26:28.751Z,10.37
2019-04-10T09:27:28.974Z,10.53
2019-04-10T09:28:28.629Z,10.61
2019-04-10T09:29:28.590Z,10.68
2019-04-10T09:30:28.962Z,10.74
2019-04-10T09:31:29.460Z,10.74
2019-04-10T09:32:28.774Z,10.67
2019-04-10T09:33:30.784Z,10.67
2019-04-10T09:34:28.643Z,10.74
2019-04-10T09:35:28.797Z,10.86
2019-04-10T09:36:29.154Z,10.78
2019-04-10T09:37:28.499Z,10.89
2019-04-10T09:38:28.547Z,10.84
2019-04-10T09:39:29.536Z,10.82
2019-04-10T09:40:28.487Z,10.90
2019-04-10T09:41:28.491Z,11.02
2019-04-10T09:42:28.458Z,10.82
2019-04-10T09:43:29.538Z,10.90
2019-04-10T09:44:28.427Z,11.07
2019-04-10T09:45:28.555Z,11.08
2019-04-10T09:46:28.864Z,11.08
2019-04-10T09:47:28.422Z,11.18
2019-04-10T09:48:28.383Z,11.17
2019-04-10T09:49:35.696Z,11.14
2019-04-10T09:50:29.377Z,11.30
2019-04-10T09:51:28.347Z,11.44
2019-04-10T09:52:28.357Z,11.59
2019-04-10T09:53:28.754Z,11.72
2019-04-10T09:54:28.320Z,11.80
2019-04-10T09:55:28.307Z,11.66
2019-04-10T09:56:28.299Z,11.57
2019-04-10T09:57:28.718Z,11.51
2019-04-10T09:58:28.271Z,11.59
2019-04-10T09:59:35.866Z,11.72
2019-04-10T10:00:29.938Z,11.72
2019-04-10T10:01:28.802Z,11.65
2019-04-10T10:02:28.337Z,11.59
2019-04-10T10:03:28.253Z,11.62
2019-04-10T10:04:29.213Z,11.66
2019-04-10T10:05:28.618Z,11.62
2019-04-10T10:06:32.104Z,11.72
2019-04-10T10:07:29.177Z,11.87
2019-04-10T10:08:28.886Z,11.95
2019-04-10T10:09:29.243Z,12.09
2019-04-10T10:10:29.032Z,12.06
2019-04-10T10:11:28.682Z,12.24
2019-04-10T10:12:28.145Z,12.27
2019-04-10T10:13:28.119Z,12.31
2019-04-10T10:14:28.621Z,12.42
2019-04-10T10:15:29.143Z,12.46
2019-04-10T10:16:30.172Z,12.53
2019-04-10T10:17:28.570Z,12.37
2019-04-10T10:18:28.078Z,12.20
2019-04-10T10:19:28.051Z,11.88
2019-04-10T10:20:29.208Z,11.99
2019-04-10T10:21:28.356Z,12.03
2019-04-10T10:22:28.009Z,11.90
2019-04-10T10:23:28.001Z,11.94
2019-04-10T10:24:28.877Z,11.94
2019-04-10T10:25:28.915Z,12.00
2019-04-10T10:26:28.211Z,12.20
2019-04-10T10:27:27.979Z,12.43
2019-04-10T10:28:29.112Z,12.42
2019-04-10T10:29:28.123Z,12.49
2019-04-10T10:30:27.927Z,12.49
2019-04-10T10:31:28.466Z,12.62
2019-04-10T10:32:28.930Z,12.57
2019-04-10T10:33:27.981Z,12.62
2019-04-10T10:34:28.281Z,12.43
2019-04-10T10:35:27.878Z,12.39
2019-04-10T10:36:36.668Z,12.46
2019-04-10T10:37:28.871Z,12.54
2019-04-10T10:38:27.872Z,12.72
2019-04-10T10:39:28.578Z,12.75
2019-04-10T10:40:27.835Z,12.86
2019-04-10T10:41:27.804Z,12.85
2019-04-10T10:42:27.823Z,12.97
2019-04-10T10:43:28.815Z,13.11
2019-04-10T10:44:27.951Z,13.19
2019-04-10T10:45:28.988Z,13.27
2019-04-10T10:46:27.758Z,13.50
2019-04-10T10:47:29.066Z,13.50
2019-04-10T10:48:27.752Z,13.50
2019-04-10T10:49:28.584Z,13.22
2019-04-10T10:50:28.922Z,12.95
2019-04-10T10:51:28.892Z,12.67
2019-04-10T10:52:27.844Z,12.60
2019-04-10T10:53:28.275Z,12.43
2019-04-10T10:54:27.926Z,12.45
2019-04-10T10:55:27.656Z,12.37
2019-04-10T10:56:28.622Z,12.43
2019-04-10T10:57:27.658Z,12.67
2019-04-10T10:58:27.972Z,12.68
2019-04-10T10:59:27.644Z,12.87
2019-04-10T11:00:27.649Z,12.97
2019-04-10T11:01:27.642Z,13.15
2019-04-10T11:02:27.734Z,13.16
2019-04-10T11:03:27.589Z,13.15
2019-04-10T11:04:27.561Z,13.19
2019-04-10T11:05:30.343Z,13.31
2019-04-10T11:06:27.537Z,13.35
2019-04-10T11:07:28.733Z,13.37
2019-04-10T11:08:27.520Z,13.25
2019-04-10T11:09:28.509Z,13.39
2019-04-10T11:10:27.697Z,13.25
2019-04-10T11:11:28.238Z,13.37
2019-04-10T11:12:28.081Z,13.50
2019-04-10T11:13:27.475Z,13.35
2019-04-10T11:14:27.754Z,13.50
2019-04-10T11:15:27.855Z,13.50
2019-04-10T11:16:27.444Z,13.52
2019-04-10T11:17:28.224Z,13.46
2019-04-10T11:18:28.549Z,13.39
2019-04-10T11:19:27.399Z,13.54
2019-04-10T11:20:28.085Z,13.54
2019-04-10T11:21:27.512Z,13.39
2019-04-10T11:22:27.373Z,13.35
2019-04-10T11:23:28.454Z,13.27
2019-04-10T11:24:27.342Z,13.31
2019-04-10T11:25:28.652Z,13.47
2019-04-10T11:26:27.651Z,13.54
2019-04-10T11:27:28.070Z,13.60
2019-04-10T11:28:30.218Z,13.65
2019-04-10T11:29:27.293Z,13.59
2019-04-10T11:30:28.605Z,13.49
2019-04-10T11:31:27.270Z,13.49
2019-04-10T11:32:28.872Z,13.57
2019-04-10T11:33:27.324Z,13.68
2019-04-10T11:34:29.079Z,13.72
2019-04-10T11:35:27.249Z,13.97
2019-04-10T11:36:28.214Z,14.10
2019-04-10T11:37:37.328Z,14.18
2019-04-10T11:38:29.060Z,14.35
2019-04-10T11:39:29.376Z,14.66
2019-04-10T11:40:27.981Z,14.97
2019-04-10T11:41:29.517Z,15.15
2019-04-10T11:42:28.821Z,15.44
2019-04-10T11:43:27.902Z,15.70
2019-04-10T11:44:28.107Z,16.10
2019-04-10T11:45:29.121Z,16.28
2019-04-10T11:46:31.400Z,16.51
2019-04-10T11:47:29.022Z,16.68
2019-04-10T11:48:29.094Z,16.78
2019-04-10T11:49:27.796Z,16.87
2019-04-10T11:50:28.573Z,16.91
2019-04-10T11:51:30.264Z,17.11
2019-04-10T11:52:33.801Z,16.91
2019-04-10T11:53:28.527Z,16.46
2019-04-10T11:54:29.904Z,16.17
2019-04-10T11:55:27.849Z,15.88
2019-04-10T11:56:30.146Z,16.04
2019-04-10T11:57:30.207Z,15.80
2019-04-10T11:58:29.030Z,15.92
2019-04-10T11:59:28.952Z,15.90
2019-04-10T12:00:30.121Z,16.04
2019-04-10T12:01:28.053Z,16.05
2019-04-10T12:02:28.272Z,16.20
2019-04-10T12:03:27.231Z,16.21
2019-04-10T12:04:29.524Z,16.50
2019-04-10T12:05:29.137Z,16.69
2019-04-10T12:06:30.921Z,17.02
2019-04-10T12:07:55.064Z,17.26
2019-04-10T12:08:50.206Z,17.33
2019-04-10T12:11:28.610Z,16.60
2019-04-10T12:12:27.942Z,16.72
2019-04-10T12:13:26.826Z,17.04
2019-04-10T12:14:27.883Z,17.39
2019-04-10T12:15:26.800Z,17.08
2019-04-10T12:16:27.265Z,17.12
2019-04-10T12:17:27.726Z,17.27
2019-04-10T12:18:26.833Z,16.43
2019-04-10T12:19:27.010Z,16.05
2019-04-10T12:20:27.104Z,15.51
2019-04-10T12:21:26.750Z,15.09
2019-04-10T12:22:27.486Z,15.35
2019-04-10T12:23:27.226Z,15.84
2019-04-10T12:24:26.705Z,16.20
2019-04-10T12:25:27.120Z,16.54
2019-04-10T12:26:27.613Z,17.14
2019-04-10T12:27:27.349Z,17.31
2019-04-10T12:28:27.715Z,17.63
2019-04-10T12:29:26.815Z,17.95
2019-04-10T12:30:27.039Z,18.15
2019-04-10T12:31:26.631Z,18.41
2019-04-10T12:32:26.635Z,18.53
2019-04-10T12:33:27.619Z,18.62
2019-04-10T12:34:26.596Z,18.60
2019-04-10T12:35:26.604Z,18.80
2019-04-10T12:36:26.643Z,18.60
2019-04-10T12:37:27.675Z,18.89
2019-04-10T12:38:27.642Z,18.68
2019-04-10T12:39:26.538Z,18.28
2019-04-10T12:40:26.640Z,18.23
2019-04-10T12:41:27.623Z,18.03
2019-04-10T12:42:26.503Z,18.00
2019-04-10T12:43:27.317Z,18.37
2019-04-10T12:44:26.521Z,18.62
2019-04-10T12:45:26.520Z,18.62
2019-04-10T12:46:26.806Z,18.71
2019-04-10T12:47:26.452Z,18.71
2019-04-10T12:48:26.441Z,18.49
2019-04-10T12:49:27.584Z,18.40
2019-04-10T12:50:26.419Z,18.55
2019-04-10T12:51:26.407Z,18.13
2019-04-10T12:52:26.879Z,18.33
2019-04-10T12:53:27.305Z,18.44
2019-04-10T12:54:26.416Z,18.60
2019-04-10T12:55:26.389Z,18.47
2019-04-10T12:56:26.353Z,18.26
2019-04-10T12:57:26.686Z,18.28
2019-04-10T12:58:26.655Z,18.37
2019-04-10T12:59:26.323Z,18.29
2019-04-10T13:00:26.312Z,18.10
2019-04-10T13:01:26.930Z,18.19
2019-04-10T13:02:26.315Z,18.38
2019-04-10T13:03:27.292Z,18.28
2019-04-10T13:04:26.272Z,18.28
2019-04-10T13:05:27.326Z,18.60
2019-04-10T13:06:26.310Z,19.08
2019-04-10T13:07:26.239Z,19.26
2019-04-10T13:08:40.041Z,19.33
2019-04-10T13:09:27.212Z,19.07
2019-04-10T13:10:27.347Z,18.88
2019-04-10T13:11:26.849Z,18.81
2019-04-10T13:12:26.186Z,18.93